Terminal Aerodrome Forecast
Issued by NWS

Home | Current Version | Previous Version | Text Only | Print | Product List | Glossary On
Versions: 1 2 3 4 5 6 7 8 9 10 11 12 13 14 15 16 17 18 19 20 21 22 23 24 25 26 27
000
FTUS43 KAPX 201902 AAF
TAFPLN
TAF AMD
KPLN 201902Z 2019/2118 14005KT P6SM BKN004 WS020/20030KT
      TEMPO 2019/2020 1/4SM FG
     FM202000 19005KT 4SM BR VCSH OVC010 WS020/20030KT
     FM202200 24006KT 4SM BR VCSH OVC010
     FM210200 27008KT 4SM BR OVC010
     FM210500 30010KT P6SM OVC015
     FM210800 31010KT P6SM BKN020
     FM211400 30012G20KT P6SM SCT025=

USA.gov is the U.S. government's official web portal to all federal, state and local government web resources and services.